sensor_id;sensor_type;location;lat;lon;timestamp;temperature;humidity
15625;DHT22;7912;51.376;6.126;2023-10-19T00:01:17;14.80;99.90
15625;DHT22;7912;51.376;6.126;2023-10-19T00:03:45;14.80;99.90
15625;DHT22;7912;51.376;6.126;2023-10-19T00:06:13;14.90;99.90
15625;DHT22;7912;51.376;6.126;2023-10-19T00:08:40;14.90;99.90
15625;DHT22;7912;51.376;6.126;2023-10-19T00:11:09;14.90;99.90
15625;DHT22;7912;51.376;6.126;2023-10-19T00:13:39;14.90;99.90
15625;DHT22;7912;51.376;6.126;2023-10-19T00:16:10;14.90;99.90
15625;DHT22;7912;51.376;6.126;2023-10-19T00:18:50;14.90;99.90
15625;DHT22;7912;51.376;6.126;2023-10-19T00:21:19;14.90;99.90
15625;DHT22;7912;51.376;6.126;2023-10-19T00:23:55;15.00;99.90
15625;DHT22;7912;51.376;6.126;2023-10-19T00:26:25;14.90;99.90
15625;DHT22;7912;51.376;6.126;2023-10-19T00:28:56;15.00;99.90
15625;DHT22;7912;51.376;6.126;2023-10-19T00:31:27;15.00;99.90
15625;DHT22;7912;51.376;6.126;2023-10-19T00:33:55;15.00;99.90
15625;DHT22;7912;51.376;6.126;2023-10-19T00:36:23;15.00;99.90
15625;DHT22;7912;51.376;6.126;2023-10-19T00:38:52;15.00;99.90
15625;DHT22;7912;51.376;6.126;2023-10-19T00:41:23;15.00;99.90
15625;DHT22;7912;51.376;6.126;2023-10-19T00:43:58;15.00;99.90
15625;DHT22;7912;51.376;6.126;2023-10-19T00:46:39;15.00;99.90
15625;DHT22;7912;51.376;6.126;2023-10-19T00:49:10;15.00;99.90
15625;DHT22;7912;51.376;6.126;2023-10-19T00:51:45;15.00;99.90
15625;DHT22;7912;51.376;6.126;2023-10-19T00:57:01;15.10;99.90
15625;DHT22;7912;51.376;6.126;2023-10-19T00:59:40;15.10;99.90
15625;DHT22;7912;51.376;6.126;2023-10-19T01:02:15;15.10;99.90
15625;DHT22;7912;51.376;6.126;2023-10-19T01:04:46;15.20;99.90
15625;DHT22;7912;51.376;6.126;2023-10-19T01:07:33;15.20;99.90
15625;DHT22;7912;51.376;6.126;2023-10-19T01:10:06;15.20;99.90
15625;DHT22;7912;51.376;6.126;2023-10-19T01:12:55;15.20;99.90
15625;DHT22;7912;51.376;6.126;2023-10-19T01:15:26;15.30;99.90
15625;DHT22;7912;51.376;6.126;2023-10-19T01:17:57;15.30;99.90
15625;DHT22;7912;51.376;6.126;2023-10-19T01:20:28;15.30;99.90
15625;DHT22;7912;51.376;6.126;2023-10-19T01:25:59;15.40;99.90
15625;DHT22;7912;51.376;6.126;2023-10-19T01:28:36;15.40;99.90
15625;DHT22;7912;51.376;6.126;2023-10-19T01:31:10;15.40;99.90
15625;DHT22;7912;51.376;6.126;2023-10-19T01:34:00;15.40;99.90
15625;DHT22;7912;51.376;6.126;2023-10-19T01:36:33;15.40;99.90
15625;DHT22;7912;51.376;6.126;2023-10-19T01:39:09;15.50;99.90
15625;DHT22;7912;51.376;6.126;2023-10-19T01:41:38;15.50;99.90
15625;DHT22;7912;51.376;6.126;2023-10-19T01:44:08;15.50;99.90
15625;DHT22;7912;51.376;6.126;2023-10-19T01:46:41;15.60;99.90
15625;DHT22;7912;51.376;6.126;2023-10-19T01:49:13;15.60;99.90
15625;DHT22;7912;51.376;6.126;2023-10-19T01:51:40;15.60;99.90
15625;DHT22;7912;51.376;6.126;2023-10-19T01:54:10;15.60;99.90
15625;DHT22;7912;51.376;6.126;2023-10-19T01:56:38;15.70;99.90
15625;DHT22;7912;51.376;6.126;2023-10-19T01:59:09;15.70;99.90
15625;DHT22;7912;51.376;6.126;2023-10-19T02:01:37;15.70;99.90
15625;DHT22;7912;51.376;6.126;2023-10-19T02:04:05;15.80;99.90
15625;DHT22;7912;51.376;6.126;2023-10-19T02:06:36;15.80;99.90
15625;DHT22;7912;51.376;6.126;2023-10-19T02:09:07;15.80;99.90
15625;DHT22;7912;51.376;6.126;2023-10-19T02:11:45;15.90;99.90
15625;DHT22;7912;51.376;6.126;2023-10-19T02:14:18;15.90;99.90
15625;DHT22;7912;51.376;6.126;2023-10-19T02:16:51;15.90;99.90
15625;DHT22;7912;51.376;6.126;2023-10-19T02:19:21;16.00;99.90
15625;DHT22;7912;51.376;6.126;2023-10-19T02:22:01;16.00;99.90
15625;DHT22;7912;51.376;6.126;2023-10-19T02:24:35;16.00;99.90
15625;DHT22;7912;51.376;6.126;2023-10-19T02:27:03;16.10;99.90
15625;DHT22;7912;51.376;6.126;2023-10-19T02:29:33;16.10;99.90
15625;DHT22;7912;51.376;6.126;2023-10-19T02:32:03;16.10;99.90
15625;DHT22;7912;51.376;6.126;2023-10-19T02:34:31;16.10;99.90
15625;DHT22;7912;51.376;6.126;2023-10-19T02:36:59;16.20;99.90
15625;DHT22;7912;51.376;6.126;2023-10-19T02:39:27;16.10;99.90
15625;DHT22;7912;51.376;6.126;2023-10-19T02:41:55;16.20;99.90
15625;DHT22;7912;51.376;6.126;2023-10-19T02:44:23;16.20;99.90
15625;DHT22;7912;51.376;6.126;2023-10-19T02:46:56;16.20;99.90
15625;DHT22;7912;51.376;6.126;2023-10-19T02:49:27;16.30;99.90
15625;DHT22;7912;51.376;6.126;2023-10-19T02:51:57;16.30;99.90
15625;DHT22;7912;51.376;6.126;2023-10-19T02:54:31;16.30;99.90
15625;DHT22;7912;51.376;6.126;2023-10-19T02:57:00;16.30;99.90
15625;DHT22;7912;51.376;6.126;2023-10-19T02:59:29;16.30;99.90
15625;DHT22;7912;51.376;6.126;2023-10-19T03:01:58;16.40;99.90
15625;DHT22;7912;51.376;6.126;2023-10-19T03:04:44;16.40;99.90
15625;DHT22;7912;51.376;6.126;2023-10-19T03:07:13;16.40;99.90
15625;DHT22;7912;51.376;6.126;2023-10-19T03:09:42;16.40;99.90
15625;DHT22;7912;51.376;6.126;2023-10-19T03:12:19;16.50;99.90
15625;DHT22;7912;51.376;6.126;2023-10-19T03:14:47;16.60;99.90
15625;DHT22;7912;51.376;6.126;2023-10-19T03:17:15;16.60;99.90
15625;DHT22;7912;51.376;6.126;2023-10-19T03:19:43;16.70;99.90
15625;DHT22;7912;51.376;6.126;2023-10-19T03:22:11;16.70;99.90
15625;DHT22;7912;51.376;6.126;2023-10-19T03:24:39;16.80;99.90
15625;DHT22;7912;51.376;6.126;2023-10-19T03:27:13;16.80;99.90
15625;DHT22;7912;51.376;6.126;2023-10-19T03:29:52;16.90;99.90
15625;DHT22;7912;51.376;6.126;2023-10-19T03:32:24;17.00;99.90
15625;DHT22;7912;51.376;6.126;2023-10-19T03:35:01;17.00;99.90
15625;DHT22;7912;51.376;6.126;2023-10-19T03:37:31;17.10;99.90
15625;DHT22;7912;51.376;6.126;2023-10-19T03:40:02;17.10;99.90
15625;DHT22;7912;51.376;6.126;2023-10-19T03:42:34;17.10;99.90
15625;DHT22;7912;51.376;6.126;2023-10-19T03:45:08;17.20;99.90
15625;DHT22;7912;51.376;6.126;2023-10-19T03:47:41;17.20;99.90
15625;DHT22;7912;51.376;6.126;2023-10-19T03:50:11;17.30;99.90
15625;DHT22;7912;51.376;6.126;2023-10-19T03:52:47;17.30;99.90
15625;DHT22;7912;51.376;6.126;2023-10-19T03:55:14;17.30;99.90
15625;DHT22;7912;51.376;6.126;2023-10-19T03:57:45;17.40;99.90
15625;DHT22;7912;51.376;6.126;2023-10-19T04:00:22;17.40;99.90
15625;DHT22;7912;51.376;6.126;2023-10-19T04:02:54;17.40;99.90
15625;DHT22;7912;51.376;6.126;2023-10-19T04:05:22;17.40;99.90
15625;DHT22;7912;51.376;6.126;2023-10-19T04:07:50;17.50;99.90
15625;DHT22;7912;51.376;6.126;2023-10-19T04:10:22;17.50;99.90
15625;DHT22;7912;51.376;6.126;2023-10-19T04:13:02;17.50;99.90
15625;DHT22;7912;51.376;6.126;2023-10-19T04:15:30;17.50;99.90
15625;DHT22;7912;51.376;6.126;2023-10-19T04:18:03;17.60;99.90
15625;DHT22;7912;51.376;6.126;2023-10-19T04:20:42;17.50;99.90
15625;DHT22;7912;51.376;6.126;2023-10-19T04:23:22;17.60;99.90
15625;DHT22;7912;51.376;6.126;2023-10-19T04:26:02;17.60;99.90
15625;DHT22;7912;51.376;6.126;2023-10-19T04:28:41;17.60;99.90
15625;DHT22;7912;51.376;6.126;2023-10-19T04:31:12;17.60;99.90
15625;DHT22;7912;51.376;6.126;2023-10-19T04:33:43;17.60;99.90
15625;DHT22;7912;51.376;6.126;2023-10-19T04:36:15;17.60;99.90
15625;DHT22;7912;51.376;6.126;2023-10-19T04:38:42;17.70;99.90
15625;DHT22;7912;51.376;6.126;2023-10-19T04:41:11;17.70;99.90
15625;DHT22;7912;51.376;6.126;2023-10-19T04:43:39;17.70;99.90
15625;DHT22;7912;51.376;6.126;2023-10-19T04:46:08;17.70;99.90
15625;DHT22;7912;51.376;6.126;2023-10-19T04:48:40;17.70;99.90
15625;DHT22;7912;51.376;6.126;2023-10-19T04:51:08;17.80;99.90
15625;DHT22;7912;51.376;6.126;2023-10-19T04:53:38;17.80;99.90
15625;DHT22;7912;51.376;6.126;2023-10-19T04:56:07;17.80;99.90
15625;DHT22;7912;51.376;6.126;2023-10-19T04:58:39;17.80;99.90
15625;DHT22;7912;51.376;6.126;2023-10-19T05:01:07;17.80;99.90
15625;DHT22;7912;51.376;6.126;2023-10-19T05:03:34;17.80;99.90
15625;DHT22;7912;51.376;6.126;2023-10-19T05:06:02;17.90;99.90
15625;DHT22;7912;51.376;6.126;2023-10-19T05:08:30;17.90;99.90
15625;DHT22;7912;51.376;6.126;2023-10-19T05:11:00;17.90;99.90
15625;DHT22;7912;51.376;6.126;2023-10-19T05:13:28;17.90;99.90
15625;DHT22;7912;51.376;6.126;2023-10-19T05:15:57;17.90;99.90
15625;DHT22;7912;51.376;6.126;2023-10-19T05:18:26;17.90;99.90
15625;DHT22;7912;51.376;6.126;2023-10-19T05:20:54;17.90;99.90
15625;DHT22;7912;51.376;6.126;2023-10-19T05:23:24;17.90;99.90
15625;DHT22;7912;51.376;6.126;2023-10-19T05:25:53;17.90;99.90
15625;DHT22;7912;51.376;6.126;2023-10-19T05:28:30;17.90;99.90
15625;DHT22;7912;51.376;6.126;2023-10-19T05:30:58;17.90;99.90
15625;DHT22;7912;51.376;6.126;2023-10-19T05:33:29;17.80;99.90
15625;DHT22;7912;51.376;6.126;2023-10-19T05:35:59;17.90;99.90
15625;DHT22;7912;51.376;6.126;2023-10-19T05:38:28;17.80;99.90
15625;DHT22;7912;51.376;6.126;2023-10-19T05:40:57;17.80;99.90
15625;DHT22;7912;51.376;6.126;2023-10-19T05:43:26;17.80;99.90
15625;DHT22;7912;51.376;6.126;2023-10-19T05:45:55;17.80;99.90
15625;DHT22;7912;51.376;6.126;2023-10-19T05:48:24;17.80;99.90
15625;DHT22;7912;51.376;6.126;2023-10-19T05:50:51;17.70;99.90
15625;DHT22;7912;51.376;6.126;2023-10-19T05:53:18;17.70;99.90
15625;DHT22;7912;51.376;6.126;2023-10-19T05:55:45;17.70;99.90
15625;DHT22;7912;51.376;6.126;2023-10-19T05:58:13;17.70;99.90
15625;DHT22;7912;51.376;6.126;2023-10-19T06:00:41;17.70;99.90
15625;DHT22;7912;51.376;6.126;2023-10-19T06:03:09;17.70;99.90
15625;DHT22;7912;51.376;6.126;2023-10-19T06:05:37;17.70;99.90
15625;DHT22;7912;51.376;6.126;2023-10-19T06:08:04;17.70;99.90
15625;DHT22;7912;51.376;6.126;2023-10-19T06:10:32;17.70;99.90
15625;DHT22;7912;51.376;6.126;2023-10-19T06:12:59;17.70;99.90
15625;DHT22;7912;51.376;6.126;2023-10-19T06:15:27;17.70;99.90
15625;DHT22;7912;51.376;6.126;2023-10-19T06:17:56;17.70;99.90
15625;DHT22;7912;51.376;6.126;2023-10-19T06:20:23;17.70;99.90
15625;DHT22;7912;51.376;6.126;2023-10-19T06:25:21;17.70;99.90
15625;DHT22;7912;51.376;6.126;2023-10-19T06:27:51;17.70;99.90
15625;DHT22;7912;51.376;6.126;2023-10-19T06:30:20;17.80;99.90
15625;DHT22;7912;51.376;6.126;2023-10-19T06:32:54;17.80;99.90
15625;DHT22;7912;51.376;6.126;2023-10-19T06:35:24;17.80;99.90
15625;DHT22;7912;51.376;6.126;2023-10-19T06:37:53;17.80;99.90
15625;DHT22;7912;51.376;6.126;2023-10-19T06:40:24;17.80;99.90
15625;DHT22;7912;51.376;6.126;2023-10-19T06:42:56;17.90;99.90
15625;DHT22;7912;51.376;6.126;2023-10-19T06:45:25;17.90;99.90
15625;DHT22;7912;51.376;6.126;2023-10-19T06:47:53;17.90;99.90
15625;DHT22;7912;51.376;6.126;2023-10-19T06:50:22;17.90;99.90
15625;DHT22;7912;51.376;6.126;2023-10-19T06:52:51;17.90;99.90
15625;DHT22;7912;51.376;6.126;2023-10-19T06:55:21;18.00;99.90
15625;DHT22;7912;51.376;6.126;2023-10-19T06:57:53;18.00;99.90
15625;DHT22;7912;51.376;6.126;2023-10-19T07:00:23;18.00;99.90
15625;DHT22;7912;51.376;6.126;2023-10-19T07:02:56;18.00;99.90
15625;DHT22;7912;51.376;6.126;2023-10-19T07:05:24;18.10;99.90
15625;DHT22;7912;51.376;6.126;2023-10-19T07:07:52;18.10;99.90
15625;DHT22;7912;51.376;6.126;2023-10-19T07:10:22;18.20;99.90
15625;DHT22;7912;51.376;6.126;2023-10-19T07:12:54;18.20;99.90
15625;DHT22;7912;51.376;6.126;2023-10-19T07:15:23;18.30;99.90
15625;DHT22;7912;51.376;6.126;2023-10-19T07:17:52;18.30;99.90
15625;DHT22;7912;51.376;6.126;2023-10-19T07:20:22;18.30;99.90
15625;DHT22;7912;51.376;6.126;2023-10-19T07:23:01;18.40;99.90
15625;DHT22;7912;51.376;6.126;2023-10-19T07:25:49;18.40;99.90
15625;DHT22;7912;51.376;6.126;2023-10-19T07:28:27;18.50;99.90
15625;DHT22;7912;51.376;6.126;2023-10-19T07:30:55;18.50;99.90
15625;DHT22;7912;51.376;6.126;2023-10-19T07:33:23;18.50;99.90
15625;DHT22;7912;51.376;6.126;2023-10-19T07:35:51;18.60;99.90
15625;DHT22;7912;51.376;6.126;2023-10-19T07:38:23;18.60;99.90
15625;DHT22;7912;51.376;6.126;2023-10-19T07:40:51;18.70;99.90
15625;DHT22;7912;51.376;6.126;2023-10-19T07:43:21;18.70;99.90
15625;DHT22;7912;51.376;6.126;2023-10-19T07:45:50;18.80;99.90
15625;DHT22;7912;51.376;6.126;2023-10-19T07:48:19;18.80;99.90
15625;DHT22;7912;51.376;6.126;2023-10-19T07:50:47;18.80;99.90
15625;DHT22;7912;51.376;6.126;2023-10-19T07:53:14;18.90;99.90
15625;DHT22;7912;51.376;6.126;2023-10-19T07:55:44;19.00;99.90
15625;DHT22;7912;51.376;6.126;2023-10-19T07:58:11;19.00;99.90
15625;DHT22;7912;51.376;6.126;2023-10-19T08:00:39;19.10;99.90
15625;DHT22;7912;51.376;6.126;2023-10-19T08:03:10;19.20;99.90
15625;DHT22;7912;51.376;6.126;2023-10-19T08:05:40;19.20;99.90
15625;DHT22;7912;51.376;6.126;2023-10-19T08:08:08;19.30;99.90
15625;DHT22;7912;51.376;6.126;2023-10-19T08:10:35;19.30;99.90
15625;DHT22;7912;51.376;6.126;2023-10-19T08:13:04;19.30;99.90
15625;DHT22;7912;51.376;6.126;2023-10-19T08:15:31;19.40;99.90
15625;DHT22;7912;51.376;6.126;2023-10-19T08:17:59;19.40;99.90
15625;DHT22;7912;51.376;6.126;2023-10-19T08:20:26;19.50;99.90
15625;DHT22;7912;51.376;6.126;2023-10-19T08:23:04;19.50;99.90
15625;DHT22;7912;51.376;6.126;2023-10-19T08:25:32;19.50;99.90
15625;DHT22;7912;51.376;6.126;2023-10-19T08:28:21;19.60;99.90
15625;DHT22;7912;51.376;6.126;2023-10-19T08:30:49;19.60;99.90
15625;DHT22;7912;51.376;6.126;2023-10-19T08:33:29;19.70;99.90
15625;DHT22;7912;51.376;6.126;2023-10-19T08:35:57;19.80;99.90
15625;DHT22;7912;51.376;6.126;2023-10-19T08:38:25;19.90;99.90
15625;DHT22;7912;51.376;6.126;2023-10-19T08:40:53;20.00;99.90
15625;DHT22;7912;51.376;6.126;2023-10-19T08:43:23;20.00;99.90
15625;DHT22;7912;51.376;6.126;2023-10-19T08:45:51;20.10;99.90
15625;DHT22;7912;51.376;6.126;2023-10-19T08:48:20;20.20;99.90
15625;DHT22;7912;51.376;6.126;2023-10-19T08:50:48;20.30;99.90
15625;DHT22;7912;51.376;6.126;2023-10-19T08:53:18;20.40;99.90
15625;DHT22;7912;51.376;6.126;2023-10-19T08:55:48;20.40;99.90
15625;DHT22;7912;51.376;6.126;2023-10-19T08:58:18;20.50;99.90
15625;DHT22;7912;51.376;6.126;2023-10-19T09:00:48;20.60;99.90
15625;DHT22;7912;51.376;6.126;2023-10-19T09:03:22;20.60;99.90
15625;DHT22;7912;51.376;6.126;2023-10-19T09:05:54;20.70;99.90
15625;DHT22;7912;51.376;6.126;2023-10-19T09:08:23;20.80;99.90
15625;DHT22;7912;51.376;6.126;2023-10-19T09:10:51;20.80;99.90
15625;DHT22;7912;51.376;6.126;2023-10-19T09:13:22;20.90;99.90
15625;DHT22;7912;51.376;6.126;2023-10-19T09:15:52;20.90;99.90
15625;DHT22;7912;51.376;6.126;2023-10-19T09:18:25;21.00;99.90
15625;DHT22;7912;51.376;6.126;2023-10-19T09:20:57;21.00;99.90
15625;DHT22;7912;51.376;6.126;2023-10-19T09:23:38;21.00;99.90
15625;DHT22;7912;51.376;6.126;2023-10-19T09:26:06;21.00;99.90
15625;DHT22;7912;51.376;6.126;2023-10-19T09:28:35;21.00;99.90
15625;DHT22;7912;51.376;6.126;2023-10-19T09:31:05;21.00;99.90
15625;DHT22;7912;51.376;6.126;2023-10-19T09:33:40;21.00;99.90
15625;DHT22;7912;51.376;6.126;2023-10-19T09:36:09;21.00;99.90
15625;DHT22;7912;51.376;6.126;2023-10-19T09:38:50;21.10;99.90
15625;DHT22;7912;51.376;6.126;2023-10-19T09:41:20;21.10;99.90
15625;DHT22;7912;51.376;6.126;2023-10-19T09:43:50;21.20;99.90
15625;DHT22;7912;51.376;6.126;2023-10-19T09:46:24;21.20;99.90
15625;DHT22;7912;51.376;6.126;2023-10-19T09:48:59;21.30;99.90
15625;DHT22;7912;51.376;6.126;2023-10-19T09:51:27;21.40;99.90
15625;DHT22;7912;51.376;6.126;2023-10-19T09:57:03;21.60;99.90
15625;DHT22;7912;51.376;6.126;2023-10-19T09:59:46;21.90;99.90
15625;DHT22;7912;51.376;6.126;2023-10-19T10:02:22;22.20;99.90
15625;DHT22;7912;51.376;6.126;2023-10-19T10:04:53;22.40;99.90
15625;DHT22;7912;51.376;6.126;2023-10-19T10:07:20;22.60;99.90
15625;DHT22;7912;51.376;6.126;2023-10-19T10:10:08;22.80;99.90
15625;DHT22;7912;51.376;6.126;2023-10-19T10:12:35;23.00;99.90
15625;DHT22;7912;51.376;6.126;2023-10-19T10:15:04;23.20;99.90
15625;DHT22;7912;51.376;6.126;2023-10-19T10:17:37;23.30;99.90
15625;DHT22;7912;51.376;6.126;2023-10-19T10:22:40;23.40;99.90
15625;DHT22;7912;51.376;6.126;2023-10-19T10:25:25;23.40;99.90
15625;DHT22;7912;51.376;6.126;2023-10-19T10:27:57;23.40;99.90
15625;DHT22;7912;51.376;6.126;2023-10-19T10:30:25;23.40;99.90
15625;DHT22;7912;51.376;6.126;2023-10-19T10:32:53;23.40;99.90
15625;DHT22;7912;51.376;6.126;2023-10-19T10:38:08;23.50;99.90
15625;DHT22;7912;51.376;6.126;2023-10-19T10:40:47;23.60;99.90
15625;DHT22;7912;51.376;6.126;2023-10-19T10:43:18;23.70;99.90
15625;DHT22;7912;51.376;6.126;2023-10-19T10:45:46;23.90;99.90
15625;DHT22;7912;51.376;6.126;2023-10-19T10:48:13;24.00;99.90
15625;DHT22;7912;51.376;6.126;2023-10-19T10:50:42;24.20;99.90
15625;DHT22;7912;51.376;6.126;2023-10-19T10:53:11;24.50;99.90
15625;DHT22;7912;51.376;6.126;2023-10-19T10:55:39;24.80;99.90
15625;DHT22;7912;51.376;6.126;2023-10-19T10:58:06;25.20;99.90
15625;DHT22;7912;51.376;6.126;2023-10-19T11:00:34;25.50;99.90
15625;DHT22;7912;51.376;6.126;2023-10-19T11:03:09;25.80;99.90
15625;DHT22;7912;51.376;6.126;2023-10-19T11:05:37;26.10;99.90
15625;DHT22;7912;51.376;6.126;2023-10-19T11:08:07;26.40;99.90
15625;DHT22;7912;51.376;6.126;2023-10-19T11:10:44;26.60;99.90
15625;DHT22;7912;51.376;6.126;2023-10-19T11:13:17;27.00;99.90
15625;DHT22;7912;51.376;6.126;2023-10-19T11:15:55;27.30;99.90
15625;DHT22;7912;51.376;6.126;2023-10-19T11:18:30;27.50;99.90
15625;DHT22;7912;51.376;6.126;2023-10-19T11:20:58;27.50;98.80
15625;DHT22;7912;51.376;6.126;2023-10-19T11:23:41;27.40;98.80
15625;DHT22;7912;51.376;6.126;2023-10-19T11:26:11;27.30;98.30
15625;DHT22;7912;51.376;6.126;2023-10-19T11:28:41;27.10;98.70
15625;DHT22;7912;51.376;6.126;2023-10-19T11:31:22;26.90;98.70
15625;DHT22;7912;51.376;6.126;2023-10-19T11:33:52;26.70;98.90
15625;DHT22;7912;51.376;6.126;2023-10-19T11:36:23;26.40;99.10
15625;DHT22;7912;51.376;6.126;2023-10-19T11:38:52;26.30;99.60
15625;DHT22;7912;51.376;6.126;2023-10-19T11:41:21;26.10;99.80
15625;DHT22;7912;51.376;6.126;2023-10-19T11:43:49;25.90;99.90
15625;DHT22;7912;51.376;6.126;2023-10-19T11:46:17;25.80;99.90
15625;DHT22;7912;51.376;6.126;2023-10-19T11:48:52;25.70;99.90
15625;DHT22;7912;51.376;6.126;2023-10-19T11:51:20;25.60;99.90
15625;DHT22;7912;51.376;6.126;2023-10-19T11:53:47;25.50;99.90
15625;DHT22;7912;51.376;6.126;2023-10-19T11:56:14;25.40;99.90
15625;DHT22;7912;51.376;6.126;2023-10-19T11:58:43;25.30;99.60
15625;DHT22;7912;51.376;6.126;2023-10-19T12:01:14;25.10;99.50
15625;DHT22;7912;51.376;6.126;2023-10-19T12:03:44;24.90;99.60
15625;DHT22;7912;51.376;6.126;2023-10-19T12:06:13;24.70;99.70
15625;DHT22;7912;51.376;6.126;2023-10-19T12:08:47;24.50;99.90
15625;DHT22;7912;51.376;6.126;2023-10-19T12:11:14;24.30;99.90
15625;DHT22;7912;51.376;6.126;2023-10-19T12:13:43;24.10;99.90
15625;DHT22;7912;51.376;6.126;2023-10-19T12:16:11;23.90;99.90
15625;DHT22;7912;51.376;6.126;2023-10-19T12:18:46;23.70;99.90
15625;DHT22;7912;51.376;6.126;2023-10-19T12:21:17;23.60;99.90
15625;DHT22;7912;51.376;6.126;2023-10-19T12:23:46;23.40;99.90
15625;DHT22;7912;51.376;6.126;2023-10-19T12:26:22;23.30;99.90
15625;DHT22;7912;51.376;6.126;2023-10-19T12:28:50;23.20;99.90
15625;DHT22;7912;51.376;6.126;2023-10-19T12:31:18;23.10;99.90
15625;DHT22;7912;51.376;6.126;2023-10-19T12:33:46;23.00;99.90
15625;DHT22;7912;51.376;6.126;2023-10-19T12:36:13;22.90;99.90
15625;DHT22;7912;51.376;6.126;2023-10-19T12:38:46;22.90;99.90
15625;DHT22;7912;51.376;6.126;2023-10-19T12:41:14;22.80;99.90
15625;DHT22;7912;51.376;6.126;2023-10-19T12:43:43;22.80;99.90
15625;DHT22;7912;51.376;6.126;2023-10-19T12:46:13;22.80;99.90
15625;DHT22;7912;51.376;6.126;2023-10-19T12:48:43;22.80;99.90
15625;DHT22;7912;51.376;6.126;2023-10-19T12:51:10;22.80;99.90
15625;DHT22;7912;51.376;6.126;2023-10-19T12:53:41;22.80;99.90
15625;DHT22;7912;51.376;6.126;2023-10-19T12:56:08;22.80;99.90
15625;DHT22;7912;51.376;6.126;2023-10-19T12:58:38;22.80;99.90
15625;DHT22;7912;51.376;6.126;2023-10-19T13:01:05;22.80;99.90
15625;DHT22;7912;51.376;6.126;2023-10-19T13:03:35;22.80;99.90
15625;DHT22;7912;51.376;6.126;2023-10-19T13:06:05;22.80;99.90
15625;DHT22;7912;51.376;6.126;2023-10-19T13:08:34;22.80;99.90
15625;DHT22;7912;51.376;6.126;2023-10-19T13:11:01;22.80;99.90
15625;DHT22;7912;51.376;6.126;2023-10-19T13:13:42;22.80;99.90
15625;DHT22;7912;51.376;6.126;2023-10-19T13:16:10;22.80;99.90
15625;DHT22;7912;51.376;6.126;2023-10-19T13:18:38;22.80;99.90
15625;DHT22;7912;51.376;6.126;2023-10-19T13:21:07;22.80;99.90
15625;DHT22;7912;51.376;6.126;2023-10-19T13:23:38;22.80;99.90
15625;DHT22;7912;51.376;6.126;2023-10-19T13:26:06;22.80;99.90
15625;DHT22;7912;51.376;6.126;2023-10-19T13:28:33;22.80;99.90
15625;DHT22;7912;51.376;6.126;2023-10-19T13:31:09;22.70;99.90
15625;DHT22;7912;51.376;6.126;2023-10-19T13:33:37;22.70;99.90
15625;DHT22;7912;51.376;6.126;2023-10-19T13:36:04;22.60;99.90
15625;DHT22;7912;51.376;6.126;2023-10-19T13:38:33;22.50;99.90
15625;DHT22;7912;51.376;6.126;2023-10-19T13:41:04;22.40;99.90
15625;DHT22;7912;51.376;6.126;2023-10-19T13:43:40;22.30;99.90
15625;DHT22;7912;51.376;6.126;2023-10-19T13:46:09;22.30;99.90
15625;DHT22;7912;51.376;6.126;2023-10-19T13:48:37;22.20;99.90
15625;DHT22;7912;51.376;6.126;2023-10-19T13:51:07;22.20;99.90
15625;DHT22;7912;51.376;6.126;2023-10-19T13:53:41;22.10;99.90
15625;DHT22;7912;51.376;6.126;2023-10-19T13:56:12;22.00;99.90
15625;DHT22;7912;51.376;6.126;2023-10-19T13:58:42;22.00;99.90
15625;DHT22;7912;51.376;6.126;2023-10-19T14:01:10;22.00;99.90
15625;DHT22;7912;51.376;6.126;2023-10-19T14:03:41;21.90;99.90
15625;DHT22;7912;51.376;6.126;2023-10-19T14:06:15;21.90;99.90
15625;DHT22;7912;51.376;6.126;2023-10-19T14:08:43;21.90;99.90
15625;DHT22;7912;51.376;6.126;2023-10-19T14:11:11;21.80;99.90
15625;DHT22;7912;51.376;6.126;2023-10-19T14:13:39;21.70;99.90
15625;DHT22;7912;51.376;6.126;2023-10-19T14:16:10;21.70;99.90
15625;DHT22;7912;51.376;6.126;2023-10-19T14:18:38;21.60;99.90
15625;DHT22;7912;51.376;6.126;2023-10-19T14:21:17;21.60;99.90
15625;DHT22;7912;51.376;6.126;2023-10-19T14:23:46;21.50;99.90
15625;DHT22;7912;51.376;6.126;2023-10-19T14:26:15;21.40;99.90
15625;DHT22;7912;51.376;6.126;2023-10-19T14:28:42;21.40;99.90
15625;DHT22;7912;51.376;6.126;2023-10-19T14:31:10;21.40;99.90
15625;DHT22;7912;51.376;6.126;2023-10-19T14:33:39;21.30;99.90
15625;DHT22;7912;51.376;6.126;2023-10-19T14:36:07;21.30;99.90
15625;DHT22;7912;51.376;6.126;2023-10-19T14:38:36;21.30;99.90
15625;DHT22;7912;51.376;6.126;2023-10-19T14:41:05;21.30;99.90
15625;DHT22;7912;51.376;6.126;2023-10-19T14:43:33;21.20;99.90
15625;DHT22;7912;51.376;6.126;2023-10-19T14:46:00;21.20;99.90
15625;DHT22;7912;51.376;6.126;2023-10-19T14:48:28;21.20;99.90
15625;DHT22;7912;51.376;6.126;2023-10-19T14:50:59;21.20;99.90
15625;DHT22;7912;51.376;6.126;2023-10-19T14:53:27;21.20;99.90
15625;DHT22;7912;51.376;6.126;2023-10-19T14:55:55;21.10;99.90
15625;DHT22;7912;51.376;6.126;2023-10-19T14:58:24;21.10;99.90
15625;DHT22;7912;51.376;6.126;2023-10-19T15:00:56;21.10;99.90
15625;DHT22;7912;51.376;6.126;2023-10-19T15:03:24;21.10;99.90
15625;DHT22;7912;51.376;6.126;2023-10-19T15:05:52;21.10;99.90
15625;DHT22;7912;51.376;6.126;2023-10-19T15:08:20;21.10;99.90
15625;DHT22;7912;51.376;6.126;2023-10-19T15:10:51;21.10;99.90
15625;DHT22;7912;51.376;6.126;2023-10-19T15:13:21;21.10;99.90
15625;DHT22;7912;51.376;6.126;2023-10-19T15:15:49;21.10;99.90
15625;DHT22;7912;51.376;6.126;2023-10-19T15:18:17;21.20;99.90
15625;DHT22;7912;51.376;6.126;2023-10-19T15:20:45;21.20;99.90
15625;DHT22;7912;51.376;6.126;2023-10-19T15:23:13;21.20;99.90
15625;DHT22;7912;51.376;6.126;2023-10-19T15:25:40;21.20;99.90
15625;DHT22;7912;51.376;6.126;2023-10-19T15:28:08;21.30;99.90
15625;DHT22;7912;51.376;6.126;2023-10-19T15:30:36;21.30;99.90
15625;DHT22;7912;51.376;6.126;2023-10-19T15:33:04;21.30;99.90
15625;DHT22;7912;51.376;6.126;2023-10-19T15:35:32;21.20;99.90
15625;DHT22;7912;51.376;6.126;2023-10-19T15:38:03;21.20;99.90
15625;DHT22;7912;51.376;6.126;2023-10-19T15:40:31;21.20;99.90
15625;DHT22;7912;51.376;6.126;2023-10-19T15:42:59;21.20;99.90
15625;DHT22;7912;51.376;6.126;2023-10-19T15:45:28;21.10;99.90
15625;DHT22;7912;51.376;6.126;2023-10-19T15:47:59;21.10;99.90
15625;DHT22;7912;51.376;6.126;2023-10-19T15:50:28;21.10;99.90
15625;DHT22;7912;51.376;6.126;2023-10-19T15:52:55;21.10;99.90
15625;DHT22;7912;51.376;6.126;2023-10-19T15:55:23;21.10;99.90
15625;DHT22;7912;51.376;6.126;2023-10-19T15:57:51;21.00;99.90
15625;DHT22;7912;51.376;6.126;2023-10-19T16:00:19;21.00;99.90
15625;DHT22;7912;51.376;6.126;2023-10-19T16:02:49;21.00;99.90
15625;DHT22;7912;51.376;6.126;2023-10-19T16:05:17;20.90;99.90
15625;DHT22;7912;51.376;6.126;2023-10-19T16:07:45;20.90;99.90
15625;DHT22;7912;51.376;6.126;2023-10-19T16:10:13;20.80;99.90
15625;DHT22;7912;51.376;6.126;2023-10-19T16:12:42;20.80;99.90
15625;DHT22;7912;51.376;6.126;2023-10-19T16:15:10;20.70;99.90
15625;DHT22;7912;51.376;6.126;2023-10-19T16:17:39;20.70;99.90
15625;DHT22;7912;51.376;6.126;2023-10-19T16:20:11;20.60;99.90
15625;DHT22;7912;51.376;6.126;2023-10-19T16:22:42;20.50;99.90